sensor_id;sensor_type;location;lat;lon;timestamp;temperature;humidity
30648;DHT22;17683;53.360;9.736;2023-04-12T00:01:43;2.90;99.90
30648;DHT22;17683;53.360;9.736;2023-04-12T00:04:09;2.90;99.90
30648;DHT22;17683;53.360;9.736;2023-04-12T00:06:35;2.90;99.90
30648;DHT22;17683;53.360;9.736;2023-04-12T00:09:01;2.90;99.90
30648;DHT22;17683;53.360;9.736;2023-04-12T00:11:27;2.90;99.90
30648;DHT22;17683;53.360;9.736;2023-04-12T00:13:53;2.80;99.90
30648;DHT22;17683;53.360;9.736;2023-04-12T00:16:19;2.80;99.90
30648;DHT22;17683;53.360;9.736;2023-04-12T00:18:45;2.80;99.90
30648;DHT22;17683;53.360;9.736;2023-04-12T00:21:11;2.80;99.90
30648;DHT22;17683;53.360;9.736;2023-04-12T00:23:37;2.70;99.90
30648;DHT22;17683;53.360;9.736;2023-04-12T00:26:04;2.70;99.90
30648;DHT22;17683;53.360;9.736;2023-04-12T00:28:30;2.70;99.90
30648;DHT22;17683;53.360;9.736;2023-04-12T00:30:56;2.70;99.90
30648;DHT22;17683;53.360;9.736;2023-04-12T00:33:21;2.70;99.90
30648;DHT22;17683;53.360;9.736;2023-04-12T00:35:47;2.70;99.90
30648;DHT22;17683;53.360;9.736;2023-04-12T00:38:13;2.70;99.90
30648;DHT22;17683;53.360;9.736;2023-04-12T00:40:41;2.70;99.90
30648;DHT22;17683;53.360;9.736;2023-04-12T00:43:07;2.80;99.90
30648;DHT22;17683;53.360;9.736;2023-04-12T00:45:35;2.80;99.90
30648;DHT22;17683;53.360;9.736;2023-04-12T00:48:04;2.80;99.90
30648;DHT22;17683;53.360;9.736;2023-04-12T00:50:29;2.90;99.90
30648;DHT22;17683;53.360;9.736;2023-04-12T00:52:56;2.90;99.90
30648;DHT22;17683;53.360;9.736;2023-04-12T00:55:23;2.90;99.90
30648;DHT22;17683;53.360;9.736;2023-04-12T00:57:49;3.00;99.90
30648;DHT22;17683;53.360;9.736;2023-04-12T01:00:16;3.00;99.90
30648;DHT22;17683;53.360;9.736;2023-04-12T01:02:45;3.10;99.90
30648;DHT22;17683;53.360;9.736;2023-04-12T01:05:13;3.10;99.90
30648;DHT22;17683;53.360;9.736;2023-04-12T01:10:54;3.20;99.90
30648;DHT22;17683;53.360;9.736;2023-04-12T01:13:30;3.40;99.90
30648;DHT22;17683;53.360;9.736;2023-04-12T01:16:23;3.50;99.90
30648;DHT22;17683;53.360;9.736;2023-04-12T01:18:53;3.60;99.90
30648;DHT22;17683;53.360;9.736;2023-04-12T01:29:39;3.70;99.90
30648;DHT22;17683;53.360;9.736;2023-04-12T01:32:05;3.80;99.90
30648;DHT22;17683;53.360;9.736;2023-04-12T01:34:33;3.90;99.90
30648;DHT22;17683;53.360;9.736;2023-04-12T01:37:01;3.90;99.90
30648;DHT22;17683;53.360;9.736;2023-04-12T01:39:28;3.90;99.90
30648;DHT22;17683;53.360;9.736;2023-04-12T01:41:55;4.00;99.90
30648;DHT22;17683;53.360;9.736;2023-04-12T01:44:21;4.00;99.90
30648;DHT22;17683;53.360;9.736;2023-04-12T01:46:47;4.00;99.90
30648;DHT22;17683;53.360;9.736;2023-04-12T01:49:15;4.00;99.90
30648;DHT22;17683;53.360;9.736;2023-04-12T01:51:54;4.00;99.90
30648;DHT22;17683;53.360;9.736;2023-04-12T01:54:28;4.10;99.90
30648;DHT22;17683;53.360;9.736;2023-04-12T01:56:57;4.10;99.90
30648;DHT22;17683;53.360;9.736;2023-04-12T01:59:47;4.10;99.90
30648;DHT22;17683;53.360;9.736;2023-04-12T02:02:13;4.10;99.90
30648;DHT22;17683;53.360;9.736;2023-04-12T02:04:40;4.10;99.90
30648;DHT22;17683;53.360;9.736;2023-04-12T02:07:07;4.10;99.90
30648;DHT22;17683;53.360;9.736;2023-04-12T02:09:37;4.10;99.90
30648;DHT22;17683;53.360;9.736;2023-04-12T02:12:04;4.20;99.90
30648;DHT22;17683;53.360;9.736;2023-04-12T02:14:30;4.20;99.90
30648;DHT22;17683;53.360;9.736;2023-04-12T02:16:56;4.30;99.90
30648;DHT22;17683;53.360;9.736;2023-04-12T02:19:23;4.30;99.90
30648;DHT22;17683;53.360;9.736;2023-04-12T02:21:49;4.20;99.90
30648;DHT22;17683;53.360;9.736;2023-04-12T02:24:15;4.20;99.90
30648;DHT22;17683;53.360;9.736;2023-04-12T02:26:41;4.20;99.90
30648;DHT22;17683;53.360;9.736;2023-04-12T02:29:08;4.20;99.90
30648;DHT22;17683;53.360;9.736;2023-04-12T02:31:35;4.20;99.90
30648;DHT22;17683;53.360;9.736;2023-04-12T02:34:03;4.20;99.90
30648;DHT22;17683;53.360;9.736;2023-04-12T02:36:29;4.20;99.90
30648;DHT22;17683;53.360;9.736;2023-04-12T02:38:54;4.20;99.90
30648;DHT22;17683;53.360;9.736;2023-04-12T02:41:21;4.10;99.90
30648;DHT22;17683;53.360;9.736;2023-04-12T02:43:47;4.20;99.90
30648;DHT22;17683;53.360;9.736;2023-04-12T02:46:20;4.20;99.90
30648;DHT22;17683;53.360;9.736;2023-04-12T02:48:46;4.20;99.90
30648;DHT22;17683;53.360;9.736;2023-04-12T02:51:13;4.20;99.90
30648;DHT22;17683;53.360;9.736;2023-04-12T02:53:39;4.30;99.90
30648;DHT22;17683;53.360;9.736;2023-04-12T02:56:05;4.20;99.90
30648;DHT22;17683;53.360;9.736;2023-04-12T02:58:33;4.20;99.90
30648;DHT22;17683;53.360;9.736;2023-04-12T03:01:00;4.30;99.90
30648;DHT22;17683;53.360;9.736;2023-04-12T03:03:26;4.30;99.90
30648;DHT22;17683;53.360;9.736;2023-04-12T03:05:53;4.30;99.90
30648;DHT22;17683;53.360;9.736;2023-04-12T03:08:19;4.30;99.90
30648;DHT22;17683;53.360;9.736;2023-04-12T03:10:46;4.40;99.90
30648;DHT22;17683;53.360;9.736;2023-04-12T03:13:11;4.40;99.90
30648;DHT22;17683;53.360;9.736;2023-04-12T03:15:37;4.40;99.90
30648;DHT22;17683;53.360;9.736;2023-04-12T03:18:03;4.50;99.90
30648;DHT22;17683;53.360;9.736;2023-04-12T03:20:29;4.50;99.90
30648;DHT22;17683;53.360;9.736;2023-04-12T03:22:54;4.50;99.90
30648;DHT22;17683;53.360;9.736;2023-04-12T03:25:20;4.50;99.90
30648;DHT22;17683;53.360;9.736;2023-04-12T03:27:46;4.60;99.90
30648;DHT22;17683;53.360;9.736;2023-04-12T03:30:12;4.60;99.90
30648;DHT22;17683;53.360;9.736;2023-04-12T03:32:39;4.60;99.90
30648;DHT22;17683;53.360;9.736;2023-04-12T03:35:06;4.60;99.90
30648;DHT22;17683;53.360;9.736;2023-04-12T03:37:33;4.60;99.90
30648;DHT22;17683;53.360;9.736;2023-04-12T03:39:58;4.60;99.90
30648;DHT22;17683;53.360;9.736;2023-04-12T03:42:24;4.60;99.90
30648;DHT22;17683;53.360;9.736;2023-04-12T03:44:51;4.60;99.90
30648;DHT22;17683;53.360;9.736;2023-04-12T03:47:17;4.60;99.90
30648;DHT22;17683;53.360;9.736;2023-04-12T03:49:44;4.60;99.90
30648;DHT22;17683;53.360;9.736;2023-04-12T03:52:09;4.60;99.90
30648;DHT22;17683;53.360;9.736;2023-04-12T03:54:35;4.60;99.90
30648;DHT22;17683;53.360;9.736;2023-04-12T03:57:01;4.60;99.90
30648;DHT22;17683;53.360;9.736;2023-04-12T03:59:30;4.60;99.90
30648;DHT22;17683;53.360;9.736;2023-04-12T04:01:58;4.60;99.90
30648;DHT22;17683;53.360;9.736;2023-04-12T04:04:26;4.60;99.90
30648;DHT22;17683;53.360;9.736;2023-04-12T04:06:52;4.60;99.90
30648;DHT22;17683;53.360;9.736;2023-04-12T04:09:18;4.60;99.90
30648;DHT22;17683;53.360;9.736;2023-04-12T04:11:44;4.60;99.90
30648;DHT22;17683;53.360;9.736;2023-04-12T04:14:11;4.70;99.90
30648;DHT22;17683;53.360;9.736;2023-04-12T04:16:37;4.60;99.90
30648;DHT22;17683;53.360;9.736;2023-04-12T04:19:02;4.60;99.90
30648;DHT22;17683;53.360;9.736;2023-04-12T04:21:28;4.60;99.90
30648;DHT22;17683;53.360;9.736;2023-04-12T04:23:59;4.60;99.90
30648;DHT22;17683;53.360;9.736;2023-04-12T04:26:26;4.60;99.90
30648;DHT22;17683;53.360;9.736;2023-04-12T04:28:58;4.60;99.90
30648;DHT22;17683;53.360;9.736;2023-04-12T04:31:26;4.60;99.90
30648;DHT22;17683;53.360;9.736;2023-04-12T04:33:52;4.60;99.90
30648;DHT22;17683;53.360;9.736;2023-04-12T04:36:18;4.60;99.90
30648;DHT22;17683;53.360;9.736;2023-04-12T04:38:44;4.60;99.90
30648;DHT22;17683;53.360;9.736;2023-04-12T04:41:10;4.70;99.90
30648;DHT22;17683;53.360;9.736;2023-04-12T04:43:36;4.70;99.90
30648;DHT22;17683;53.360;9.736;2023-04-12T04:46:04;4.60;99.90
30648;DHT22;17683;53.360;9.736;2023-04-12T04:48:30;4.60;99.90
30648;DHT22;17683;53.360;9.736;2023-04-12T04:50:55;4.60;99.90
30648;DHT22;17683;53.360;9.736;2023-04-12T04:53:21;4.70;99.90
30648;DHT22;17683;53.360;9.736;2023-04-12T04:55:47;4.70;99.90
30648;DHT22;17683;53.360;9.736;2023-04-12T04:58:14;4.70;99.90
30648;DHT22;17683;53.360;9.736;2023-04-12T05:00:40;4.70;99.90
30648;DHT22;17683;53.360;9.736;2023-04-12T05:03:09;4.70;99.90
30648;DHT22;17683;53.360;9.736;2023-04-12T05:05:35;4.70;99.90
30648;DHT22;17683;53.360;9.736;2023-04-12T05:08:01;4.70;99.90
30648;DHT22;17683;53.360;9.736;2023-04-12T05:10:26;4.80;99.90
30648;DHT22;17683;53.360;9.736;2023-04-12T05:12:52;4.80;99.90
30648;DHT22;17683;53.360;9.736;2023-04-12T05:15:18;4.80;99.90
30648;DHT22;17683;53.360;9.736;2023-04-12T05:17:44;4.80;99.90
30648;DHT22;17683;53.360;9.736;2023-04-12T05:20:10;4.90;99.90
30648;DHT22;17683;53.360;9.736;2023-04-12T05:22:36;4.90;99.90
30648;DHT22;17683;53.360;9.736;2023-04-12T05:25:01;5.00;99.90
30648;DHT22;17683;53.360;9.736;2023-04-12T05:27:29;5.00;99.90
30648;DHT22;17683;53.360;9.736;2023-04-12T05:29:58;5.10;99.90
30648;DHT22;17683;53.360;9.736;2023-04-12T05:32:24;5.10;99.90
30648;DHT22;17683;53.360;9.736;2023-04-12T05:34:50;5.10;99.90
30648;DHT22;17683;53.360;9.736;2023-04-12T05:37:16;5.20;99.90
30648;DHT22;17683;53.360;9.736;2023-04-12T05:39:42;5.20;99.90
30648;DHT22;17683;53.360;9.736;2023-04-12T05:42:08;5.20;99.90
30648;DHT22;17683;53.360;9.736;2023-04-12T05:44:34;5.20;99.90
30648;DHT22;17683;53.360;9.736;2023-04-12T05:47:02;5.30;99.90
30648;DHT22;17683;53.360;9.736;2023-04-12T05:49:28;5.30;99.90
30648;DHT22;17683;53.360;9.736;2023-04-12T05:51:55;5.40;99.90
30648;DHT22;17683;53.360;9.736;2023-04-12T05:54:21;5.40;99.90
30648;DHT22;17683;53.360;9.736;2023-04-12T05:56:47;5.50;99.90
30648;DHT22;17683;53.360;9.736;2023-04-12T05:59:12;5.60;99.90
30648;DHT22;17683;53.360;9.736;2023-04-12T06:01:38;5.60;99.90
30648;DHT22;17683;53.360;9.736;2023-04-12T06:04:07;5.70;99.90
30648;DHT22;17683;53.360;9.736;2023-04-12T06:06:33;5.80;99.90
30648;DHT22;17683;53.360;9.736;2023-04-12T06:08:58;5.90;99.90
30648;DHT22;17683;53.360;9.736;2023-04-12T06:11:29;6.10;99.90
30648;DHT22;17683;53.360;9.736;2023-04-12T06:13:56;6.20;99.90
30648;DHT22;17683;53.360;9.736;2023-04-12T06:16:21;6.30;99.90
30648;DHT22;17683;53.360;9.736;2023-04-12T06:18:47;6.50;99.90
30648;DHT22;17683;53.360;9.736;2023-04-12T06:21:13;6.60;99.90
30648;DHT22;17683;53.360;9.736;2023-04-12T06:23:38;6.80;99.90
30648;DHT22;17683;53.360;9.736;2023-04-12T06:26:04;6.90;99.90
30648;DHT22;17683;53.360;9.736;2023-04-12T06:28:30;7.20;99.90
30648;DHT22;17683;53.360;9.736;2023-04-12T06:30:56;7.30;99.90
30648;DHT22;17683;53.360;9.736;2023-04-12T06:33:22;7.40;99.90
30648;DHT22;17683;53.360;9.736;2023-04-12T06:35:48;7.50;99.90
30648;DHT22;17683;53.360;9.736;2023-04-12T06:38:13;7.50;99.90
30648;DHT22;17683;53.360;9.736;2023-04-12T06:40:39;7.50;99.90
30648;DHT22;17683;53.360;9.736;2023-04-12T06:43:05;7.50;99.90
30648;DHT22;17683;53.360;9.736;2023-04-12T06:45:31;7.60;99.90
30648;DHT22;17683;53.360;9.736;2023-04-12T06:47:57;7.60;99.90
30648;DHT22;17683;53.360;9.736;2023-04-12T06:50:23;7.60;99.90
30648;DHT22;17683;53.360;9.736;2023-04-12T06:52:49;7.60;99.90
30648;DHT22;17683;53.360;9.736;2023-04-12T06:55:15;7.60;99.90
30648;DHT22;17683;53.360;9.736;2023-04-12T06:57:41;7.70;99.90
30648;DHT22;17683;53.360;9.736;2023-04-12T07:00:09;7.70;99.90
30648;DHT22;17683;53.360;9.736;2023-04-12T07:02:35;7.70;99.90
30648;DHT22;17683;53.360;9.736;2023-04-12T07:05:02;7.80;99.90
30648;DHT22;17683;53.360;9.736;2023-04-12T07:07:27;7.80;99.90
30648;DHT22;17683;53.360;9.736;2023-04-12T07:09:53;7.90;99.90
30648;DHT22;17683;53.360;9.736;2023-04-12T07:12:19;7.90;99.90
30648;DHT22;17683;53.360;9.736;2023-04-12T07:14:44;8.00;99.90
30648;DHT22;17683;53.360;9.736;2023-04-12T07:17:10;8.00;99.90
30648;DHT22;17683;53.360;9.736;2023-04-12T07:19:36;8.10;99.90
30648;DHT22;17683;53.360;9.736;2023-04-12T07:22:01;8.10;99.90
30648;DHT22;17683;53.360;9.736;2023-04-12T07:24:27;8.10;99.90
30648;DHT22;17683;53.360;9.736;2023-04-12T07:26:53;8.10;99.90
30648;DHT22;17683;53.360;9.736;2023-04-12T07:29:22;8.10;99.90
30648;DHT22;17683;53.360;9.736;2023-04-12T07:31:48;8.10;99.90
30648;DHT22;17683;53.360;9.736;2023-04-12T07:34:14;8.10;99.90
30648;DHT22;17683;53.360;9.736;2023-04-12T07:36:39;8.00;99.90
30648;DHT22;17683;53.360;9.736;2023-04-12T07:39:05;8.00;99.90
30648;DHT22;17683;53.360;9.736;2023-04-12T07:41:31;8.00;99.90
30648;DHT22;17683;53.360;9.736;2023-04-12T07:43:57;8.00;99.90
30648;DHT22;17683;53.360;9.736;2023-04-12T07:46:22;8.00;99.90
30648;DHT22;17683;53.360;9.736;2023-04-12T07:48:48;8.00;99.90
30648;DHT22;17683;53.360;9.736;2023-04-12T07:51:15;8.00;99.90
30648;DHT22;17683;53.360;9.736;2023-04-12T07:53:41;8.00;99.90
30648;DHT22;17683;53.360;9.736;2023-04-12T07:56:07;8.00;99.90
30648;DHT22;17683;53.360;9.736;2023-04-12T07:58:33;8.10;99.90
30648;DHT22;17683;53.360;9.736;2023-04-12T08:00:59;8.10;99.90
30648;DHT22;17683;53.360;9.736;2023-04-12T08:03:25;8.10;99.90
30648;DHT22;17683;53.360;9.736;2023-04-12T08:05:51;8.20;99.90
30648;DHT22;17683;53.360;9.736;2023-04-12T08:08:20;8.20;99.90
30648;DHT22;17683;53.360;9.736;2023-04-12T08:10:47;8.20;99.90
30648;DHT22;17683;53.360;9.736;2023-04-12T08:13:13;8.20;99.90
30648;DHT22;17683;53.360;9.736;2023-04-12T08:15:39;8.30;99.90
30648;DHT22;17683;53.360;9.736;2023-04-12T08:18:05;8.40;99.90
30648;DHT22;17683;53.360;9.736;2023-04-12T08:20:31;8.50;99.90
30648;DHT22;17683;53.360;9.736;2023-04-12T08:22:57;8.50;99.90
30648;DHT22;17683;53.360;9.736;2023-04-12T08:25:23;8.60;99.90
30648;DHT22;17683;53.360;9.736;2023-04-12T08:27:49;8.70;99.90
30648;DHT22;17683;53.360;9.736;2023-04-12T08:30:16;8.90;99.90
30648;DHT22;17683;53.360;9.736;2023-04-12T08:32:42;9.00;99.90
30648;DHT22;17683;53.360;9.736;2023-04-12T08:35:08;9.10;99.90
30648;DHT22;17683;53.360;9.736;2023-04-12T08:37:34;9.20;99.90
30648;DHT22;17683;53.360;9.736;2023-04-12T08:40:04;9.40;99.90
30648;DHT22;17683;53.360;9.736;2023-04-12T08:42:31;9.50;99.90
30648;DHT22;17683;53.360;9.736;2023-04-12T08:44:58;9.60;99.90
30648;DHT22;17683;53.360;9.736;2023-04-12T08:47:29;9.80;99.90
30648;DHT22;17683;53.360;9.736;2023-04-12T08:49:55;9.80;99.90
30648;DHT22;17683;53.360;9.736;2023-04-12T08:52:21;9.90;99.90
30648;DHT22;17683;53.360;9.736;2023-04-12T08:54:47;9.90;99.90
30648;DHT22;17683;53.360;9.736;2023-04-12T08:57:14;10.00;99.90
30648;DHT22;17683;53.360;9.736;2023-04-12T08:59:42;10.00;99.90
30648;DHT22;17683;53.360;9.736;2023-04-12T09:02:09;10.00;99.90
30648;DHT22;17683;53.360;9.736;2023-04-12T09:04:48;10.10;99.90
30648;DHT22;17683;53.360;9.736;2023-04-12T09:07:14;10.10;99.90
30648;DHT22;17683;53.360;9.736;2023-04-12T09:09:44;10.10;99.90
30648;DHT22;17683;53.360;9.736;2023-04-12T09:12:10;10.10;99.90
30648;DHT22;17683;53.360;9.736;2023-04-12T09:14:38;10.20;99.90
30648;DHT22;17683;53.360;9.736;2023-04-12T09:17:04;10.10;99.90
30648;DHT22;17683;53.360;9.736;2023-04-12T09:19:32;10.10;99.90
30648;DHT22;17683;53.360;9.736;2023-04-12T09:21:58;10.00;99.90
30648;DHT22;17683;53.360;9.736;2023-04-12T09:24:24;10.00;99.90
30648;DHT22;17683;53.360;9.736;2023-04-12T09:27:06;10.00;99.90
30648;DHT22;17683;53.360;9.736;2023-04-12T09:29:33;10.00;99.90
30648;DHT22;17683;53.360;9.736;2023-04-12T09:32:01;10.00;99.90
30648;DHT22;17683;53.360;9.736;2023-04-12T09:34:28;10.00;99.90
30648;DHT22;17683;53.360;9.736;2023-04-12T09:36:55;10.00;99.90
30648;DHT22;17683;53.360;9.736;2023-04-12T09:39:33;10.00;99.90
30648;DHT22;17683;53.360;9.736;2023-04-12T09:42:12;10.00;99.90
30648;DHT22;17683;53.360;9.736;2023-04-12T09:44:39;10.00;99.90
30648;DHT22;17683;53.360;9.736;2023-04-12T09:47:05;10.00;99.90
30648;DHT22;17683;53.360;9.736;2023-04-12T09:49:41;10.00;99.90
30648;DHT22;17683;53.360;9.736;2023-04-12T09:52:08;10.00;99.90
30648;DHT22;17683;53.360;9.736;2023-04-12T09:54:43;10.00;99.90
30648;DHT22;17683;53.360;9.736;2023-04-12T09:57:10;9.90;99.90
30648;DHT22;17683;53.360;9.736;2023-04-12T09:59:38;9.90;99.90
30648;DHT22;17683;53.360;9.736;2023-04-12T10:02:13;9.90;99.90
30648;DHT22;17683;53.360;9.736;2023-04-12T10:04:41;9.90;99.90
30648;DHT22;17683;53.360;9.736;2023-04-12T10:07:07;9.90;99.90
30648;DHT22;17683;53.360;9.736;2023-04-12T10:09:33;9.80;99.90
30648;DHT22;17683;53.360;9.736;2023-04-12T10:12:01;9.80;99.90
30648;DHT22;17683;53.360;9.736;2023-04-12T10:14:28;9.70;99.90
30648;DHT22;17683;53.360;9.736;2023-04-12T10:17:00;9.60;99.90
30648;DHT22;17683;53.360;9.736;2023-04-12T10:19:27;9.60;99.90
30648;DHT22;17683;53.360;9.736;2023-04-12T10:21:54;9.60;99.90
30648;DHT22;17683;53.360;9.736;2023-04-12T10:24:23;9.60;99.90
30648;DHT22;17683;53.360;9.736;2023-04-12T10:26:50;9.60;99.90
30648;DHT22;17683;53.360;9.736;2023-04-12T10:31:50;9.50;99.90
30648;DHT22;17683;53.360;9.736;2023-04-12T10:34:17;9.50;99.90
30648;DHT22;17683;53.360;9.736;2023-04-12T10:36:53;9.50;99.90
30648;DHT22;17683;53.360;9.736;2023-04-12T10:44:44;9.40;99.90
30648;DHT22;17683;53.360;9.736;2023-04-12T10:47:09;9.40;99.90
30648;DHT22;17683;53.360;9.736;2023-04-12T10:49:35;9.40;99.90
30648;DHT22;17683;53.360;9.736;2023-04-12T10:54:34;9.40;99.90
30648;DHT22;17683;53.360;9.736;2023-04-12T10:57:00;9.30;99.90
30648;DHT22;17683;53.360;9.736;2023-04-12T10:59:50;9.30;99.90
30648;DHT22;17683;53.360;9.736;2023-04-12T11:02:16;9.40;99.90
30648;DHT22;17683;53.360;9.736;2023-04-12T11:07:40;9.30;99.90
30648;DHT22;17683;53.360;9.736;2023-04-12T11:10:16;9.30;99.90
30648;DHT22;17683;53.360;9.736;2023-04-12T11:12:53;9.30;99.90
30648;DHT22;17683;53.360;9.736;2023-04-12T11:15:25;9.20;99.90
30648;DHT22;17683;53.360;9.736;2023-04-12T11:17:55;9.10;99.90
30648;DHT22;17683;53.360;9.736;2023-04-12T11:20:21;9.10;99.90
30648;DHT22;17683;53.360;9.736;2023-04-12T11:22:48;9.10;99.90
30648;DHT22;17683;53.360;9.736;2023-04-12T11:25:16;9.10;99.90
30648;DHT22;17683;53.360;9.736;2023-04-12T11:27:48;9.00;99.90
30648;DHT22;17683;53.360;9.736;2023-04-12T11:30:15;8.90;99.90
30648;DHT22;17683;53.360;9.736;2023-04-12T11:32:44;8.90;99.90
30648;DHT22;17683;53.360;9.736;2023-04-12T11:35:10;8.80;99.90
30648;DHT22;17683;53.360;9.736;2023-04-12T11:37:41;8.90;99.90
30648;DHT22;17683;53.360;9.736;2023-04-12T11:40:08;8.90;99.90
30648;DHT22;17683;53.360;9.736;2023-04-12T11:42:34;9.00;99.90
30648;DHT22;17683;53.360;9.736;2023-04-12T11:45:00;9.00;99.90
30648;DHT22;17683;53.360;9.736;2023-04-12T11:47:26;9.00;99.90
30648;DHT22;17683;53.360;9.736;2023-04-12T11:49:53;9.00;99.90
30648;DHT22;17683;53.360;9.736;2023-04-12T11:52:26;9.00;99.90
30648;DHT22;17683;53.360;9.736;2023-04-12T11:54:52;9.10;99.90
30648;DHT22;17683;53.360;9.736;2023-04-12T11:57:21;9.10;99.90
30648;DHT22;17683;53.360;9.736;2023-04-12T11:59:47;8.90;99.90
30648;DHT22;17683;53.360;9.736;2023-04-12T12:02:14;9.00;99.90
30648;DHT22;17683;53.360;9.736;2023-04-12T12:04:44;9.00;99.90
30648;DHT22;17683;53.360;9.736;2023-04-12T12:07:11;9.00;99.90
30648;DHT22;17683;53.360;9.736;2023-04-12T12:09:38;8.90;99.90
30648;DHT22;17683;53.360;9.736;2023-04-12T12:12:05;8.90;99.90
30648;DHT22;17683;53.360;9.736;2023-04-12T12:14:33;9.00;99.90
30648;DHT22;17683;53.360;9.736;2023-04-12T12:17:01;9.10;99.90
30648;DHT22;17683;53.360;9.736;2023-04-12T12:19:40;9.00;99.90
30648;DHT22;17683;53.360;9.736;2023-04-12T12:24:35;9.00;99.90
30648;DHT22;17683;53.360;9.736;2023-04-12T12:27:02;9.10;99.90
30648;DHT22;17683;53.360;9.736;2023-04-12T12:29:37;9.00;99.90
30648;DHT22;17683;53.360;9.736;2023-04-12T12:32:11;9.00;99.90
30648;DHT22;17683;53.360;9.736;2023-04-12T12:34:39;9.00;99.90
30648;DHT22;17683;53.360;9.736;2023-04-12T12:37:11;9.00;99.90
30648;DHT22;17683;53.360;9.736;2023-04-12T12:39:37;9.00;99.90
30648;DHT22;17683;53.360;9.736;2023-04-12T12:42:03;9.00;99.90
30648;DHT22;17683;53.360;9.736;2023-04-12T12:44:30;9.10;99.90
30648;DHT22;17683;53.360;9.736;2023-04-12T12:47:00;9.10;99.90
30648;DHT22;17683;53.360;9.736;2023-04-12T12:49:27;9.10;99.90
30648;DHT22;17683;53.360;9.736;2023-04-12T12:51:53;9.20;99.90
30648;DHT22;17683;53.360;9.736;2023-04-12T12:54:18;9.30;99.90
30648;DHT22;17683;53.360;9.736;2023-04-12T12:56:44;9.40;99.90
30648;DHT22;17683;53.360;9.736;2023-04-12T12:59:10;9.50;99.90
30648;DHT22;17683;53.360;9.736;2023-04-12T13:01:36;9.60;99.90
30648;DHT22;17683;53.360;9.736;2023-04-12T13:04:02;9.60;99.90
30648;DHT22;17683;53.360;9.736;2023-04-12T13:06:27;9.60;99.90
30648;DHT22;17683;53.360;9.736;2023-04-12T13:08:53;9.70;99.90
30648;DHT22;17683;53.360;9.736;2023-04-12T13:11:20;9.80;99.90
30648;DHT22;17683;53.360;9.736;2023-04-12T13:13:46;9.70;99.90
30648;DHT22;17683;53.360;9.736;2023-04-12T13:16:11;9.70;99.90
30648;DHT22;17683;53.360;9.736;2023-04-12T13:18:37;9.70;99.90
30648;DHT22;17683;53.360;9.736;2023-04-12T13:21:03;9.70;99.90
30648;DHT22;17683;53.360;9.736;2023-04-12T13:23:29;9.60;99.90
30648;DHT22;17683;53.360;9.736;2023-04-12T13:25:55;9.60;99.90
30648;DHT22;17683;53.360;9.736;2023-04-12T13:28:20;9.60;99.90
30648;DHT22;17683;53.360;9.736;2023-04-12T13:30:46;9.60;99.90
30648;DHT22;17683;53.360;9.736;2023-04-12T13:33:13;9.50;99.90
30648;DHT22;17683;53.360;9.736;2023-04-12T13:35:39;9.50;99.90
30648;DHT22;17683;53.360;9.736;2023-04-12T13:38:04;9.50;99.90
30648;DHT22;17683;53.360;9.736;2023-04-12T13:40:30;9.50;99.90
30648;DHT22;17683;53.360;9.736;2023-04-12T13:42:59;9.40;99.90
30648;DHT22;17683;53.360;9.736;2023-04-12T13:45:25;9.50;99.90
30648;DHT22;17683;53.360;9.736;2023-04-12T13:47:51;9.50;99.90
30648;DHT22;17683;53.360;9.736;2023-04-12T13:50:17;9.50;99.90
30648;DHT22;17683;53.360;9.736;2023-04-12T13:52:42;9.50;99.90
30648;DHT22;17683;53.360;9.736;2023-04-12T13:55:08;9.50;99.90
30648;DHT22;17683;53.360;9.736;2023-04-12T13:57:34;9.50;99.90
30648;DHT22;17683;53.360;9.736;2023-04-12T14:00:00;9.60;99.90
30648;DHT22;17683;53.360;9.736;2023-04-12T14:02:26;9.50;99.90
30648;DHT22;17683;53.360;9.736;2023-04-12T14:04:52;9.60;99.90
30648;DHT22;17683;53.360;9.736;2023-04-12T14:07:19;9.60;99.90
30648;DHT22;17683;53.360;9.736;2023-04-12T14:09:45;9.60;99.90
30648;DHT22;17683;53.360;9.736;2023-04-12T14:12:12;9.60;99.90
30648;DHT22;17683;53.360;9.736;2023-04-12T14:14:39;9.60;99.90
30648;DHT22;17683;53.360;9.736;2023-04-12T14:17:05;9.70;99.90
30648;DHT22;17683;53.360;9.736;2023-04-12T14:19:30;9.80;99.90
30648;DHT22;17683;53.360;9.736;2023-04-12T14:21:56;9.80;99.90
30648;DHT22;17683;53.360;9.736;2023-04-12T14:24:22;9.90;99.90
30648;DHT22;17683;53.360;9.736;2023-04-12T14:26:47;9.90;99.90
30648;DHT22;17683;53.360;9.736;2023-04-12T14:29:14;9.90;99.90
30648;DHT22;17683;53.360;9.736;2023-04-12T14:31:40;9.90;99.90
30648;DHT22;17683;53.360;9.736;2023-04-12T14:34:06;9.90;99.90
30648;DHT22;17683;53.360;9.736;2023-04-12T14:36:35;9.90;99.90
30648;DHT22;17683;53.360;9.736;2023-04-12T14:39:01;9.90;99.90
30648;DHT22;17683;53.360;9.736;2023-04-12T14:41:29;9.80;99.90
30648;DHT22;17683;53.360;9.736;2023-04-12T14:43:55;9.80;99.90
30648;DHT22;17683;53.360;9.736;2023-04-12T14:46:20;9.80;99.90
30648;DHT22;17683;53.360;9.736;2023-04-12T14:48:46;9.90;99.90
30648;DHT22;17683;53.360;9.736;2023-04-12T14:51:12;10.00;99.90
30648;DHT22;17683;53.360;9.736;2023-04-12T14:53:38;10.10;99.90
30648;DHT22;17683;53.360;9.736;2023-04-12T14:56:21;10.10;99.90
30648;DHT22;17683;53.360;9.736;2023-04-12T14:58:49;10.10;99.90
30648;DHT22;17683;53.360;9.736;2023-04-12T15:01:15;10.10;99.90
30648;DHT22;17683;53.360;9.736;2023-04-12T15:03:42;10.10;99.90
30648;DHT22;17683;53.360;9.736;2023-04-12T15:06:09;10.10;99.90
30648;DHT22;17683;53.360;9.736;2023-04-12T15:08:34;10.20;99.90
30648;DHT22;17683;53.360;9.736;2023-04-12T15:11:06;10.20;99.90
30648;DHT22;17683;53.360;9.736;2023-04-12T15:13:38;10.20;99.90
30648;DHT22;17683;53.360;9.736;2023-04-12T15:16:06;10.30;99.90
30648;DHT22;17683;53.360;9.736;2023-04-12T15:18:39;10.30;99.90
30648;DHT22;17683;53.360;9.736;2023-04-12T15:21:07;10.30;99.90
30648;DHT22;17683;53.360;9.736;2023-04-12T15:23:34;10.30;99.90
30648;DHT22;17683;53.360;9.736;2023-04-12T15:26:00;10.20;99.90
30648;DHT22;17683;53.360;9.736;2023-04-12T15:28:26;10.20;99.90
30648;DHT22;17683;53.360;9.736;2023-04-12T15:30:53;10.10;99.90
30648;DHT22;17683;53.360;9.736;2023-04-12T15:33:19;10.10;99.90
30648;DHT22;17683;53.360;9.736;2023-04-12T15:35:46;10.10;99.90
30648;DHT22;17683;53.360;9.736;2023-04-12T15:38:12;10.10;99.90
30648;DHT22;17683;53.360;9.736;2023-04-12T15:40:38;10.20;99.90
30648;DHT22;17683;53.360;9.736;2023-04-12T15:43:03;10.10;99.90
30648;DHT22;17683;53.360;9.736;2023-04-12T15:45:29;10.10;99.90
30648;DHT22;17683;53.360;9.736;2023-04-12T15:47:55;10.10;99.90
30648;DHT22;17683;53.360;9.736;2023-04-12T15:50:21;10.10;99.90
30648;DHT22;17683;53.360;9.736;2023-04-12T15:52:47;10.10;99.90
30648;DHT22;17683;53.360;9.736;2023-04-12T15:55:14;10.10;99.90
30648;DHT22;17683;53.360;9.736;2023-04-12T15:57:43;10.10;99.90
30648;DHT22;17683;53.360;9.736;2023-04-12T16:00:09;10.10;99.90
30648;DHT22;17683;53.360;9.736;2023-04-12T16:02:52;10.10;99.90
30648;DHT22;17683;53.360;9.736;2023-04-12T16:05:20;10.20;99.90
30648;DHT22;17683;53.360;9.736;2023-04-12T16:07:46;10.20;99.90
30648;DHT22;17683;53.360;9.736;2023-04-12T16:10:19;10.20;99.90
30648;DHT22;17683;53.360;9.736;2023-04-12T16:12:52;10.30;99.90